Time;durP1;ratioP1;P1;durP2;ratioP2;P2;SDS_P1;SDS_P2;PMS_P1;PMS_P2;Temp;Humidity;BMP_temperature;BMP_pressure;BME280_temperature;BME280_humidity;BME280_pressure;Samples;Min_cycle;Max_cycle;Signal;HPM_P1;HPM_P2
2023/04/30 00:01:59;;;;;;;11.20;8.68;;;;;;;7.58;100.00;102275.53;4966734;28;20047;-61
2023/04/30 00:04:24;;;;;;;13.02;9.63;;;;;;;7.51;100.00;102263.63;4967910;28;20481;-61
2023/04/30 00:06:50;;;;;;;10.18;8.93;;;;;;;7.42;100.00;102264.66;4965623;28;20031;-62
2023/04/30 00:09:15;;;;;;;12.88;9.77;;;;;;;7.38;100.00;102253.22;4967664;28;20081;-61
2023/04/30 00:11:40;;;;;;;11.75;9.88;;;;;;;7.38;100.00;102257.84;4967731;28;20023;-61
2023/04/30 00:14:05;;;;;;;9.90;8.73;;;;;;;7.28;100.00;102244.38;4972312;28;20049;-61
2023/04/30 00:16:31;;;;;;;11.18;9.25;;;;;;;7.22;100.00;102256.00;4975851;28;20035;-61
2023/04/30 00:18:56;;;;;;;11.60;8.80;;;;;;;7.13;100.00;102255.16;4968378;28;20549;-61
2023/04/30 00:21:21;;;;;;;10.30;8.48;;;;;;;7.10;100.00;102260.13;4968194;28;20026;-61
2023/04/30 00:23:47;;;;;;;10.93;8.57;;;;;;;7.04;100.00;102256.19;4984874;28;20122;-62
2023/04/30 00:26:12;;;;;;;9.90;8.88;;;;;;;7.03;100.00;102265.41;4969754;28;20027;-62
2023/04/30 00:28:37;;;;;;;12.40;8.98;;;;;;;7.08;100.00;102262.16;4964715;28;20041;-61
2023/04/30 00:31:08;;;;;;;11.13;8.98;;;;;;;7.22;100.00;102258.75;4970560;28;20682;-61
2023/04/30 00:33:33;;;;;;;11.23;9.35;;;;;;;7.12;100.00;102263.53;4971364;28;20054;-61
2023/04/30 00:35:58;;;;;;;10.85;9.20;;;;;;;7.12;100.00;102264.38;4983848;28;20030;-61
2023/04/30 00:38:23;;;;;;;10.75;8.93;;;;;;;7.14;100.00;102261.47;4969443;28;20023;-61
2023/04/30 00:40:49;;;;;;;12.75;9.20;;;;;;;7.21;100.00;102268.81;4973632;28;20089;-61
2023/04/30 00:43:14;;;;;;;10.77;8.85;;;;;;;7.09;100.00;102272.91;4973520;28;20042;-62
2023/04/30 00:45:39;;;;;;;11.43;9.43;;;;;;;6.99;100.00;102269.50;4970912;28;20039;-61
2023/04/30 00:48:05;;;;;;;10.02;9.02;;;;;;;6.90;100.00;102265.09;4970272;28;20047;-62
2023/04/30 00:50:30;;;;;;;10.77;8.85;;;;;;;6.81;100.00;102260.66;4970836;28;20775;-61
2023/04/30 00:52:56;;;;;;;10.10;8.48;;;;;;;6.72;100.00;102263.38;4969357;28;20034;-62
2023/04/30 00:55:21;;;;;;;11.40;9.77;;;;;;;6.71;100.00;102263.56;4970368;28;20469;-61
2023/04/30 00:57:47;;;;;;;10.77;9.05;;;;;;;6.67;100.00;102264.94;4968981;28;20034;-63
2023/04/30 01:00:13;;;;;;;9.35;8.40;;;;;;;6.68;100.00;102270.22;4970856;28;20174;-61
2023/04/30 01:02:39;;;;;;;10.40;9.27;;;;;;;6.61;100.00;102266.47;4969929;28;20058;-62
2023/04/30 01:05:05;;;;;;;12.35;9.80;;;;;;;6.55;100.00;102261.69;4970192;28;20058;-61
2023/04/30 01:07:32;;;;;;;10.82;9.10;;;;;;;6.45;100.00;102258.28;4969982;28;20027;-61
2023/04/30 01:09:57;;;;;;;10.45;9.02;;;;;;;6.38;100.00;102262.69;4970320;28;20023;-61
2023/04/30 01:13:00;;;;;;;10.57;9.10;;;;;;;6.34;100.00;102264.91;4968181;28;20041;-61
2023/04/30 01:15:46;;;;;;;11.15;8.95;;;;;;;6.34;100.00;102255.88;4969708;28;20504;-61
2023/04/30 01:18:26;;;;;;;10.73;9.63;;;;;;;6.34;100.00;102259.47;4969492;28;20062;-62
2023/04/30 01:20:58;;;;;;;10.80;9.10;;;;;;;6.32;100.00;102261.47;4972664;28;20053;-62
2023/04/30 01:23:35;;;;;;;11.43;9.73;;;;;;;6.28;100.00;102257.38;4974581;28;20030;-61
2023/04/30 01:26:14;;;;;;;10.98;9.38;;;;;;;6.27;100.00;102261.13;4969815;28;20081;-62
2023/04/30 01:28:43;;;;;;;10.88;9.10;;;;;;;6.23;100.00;102259.75;4987692;28;20061;-61
2023/04/30 01:31:17;;;;;;;10.57;9.43;;;;;;;6.23;100.00;102263.38;4978705;28;20033;-61
2023/04/30 01:33:43;;;;;;;11.93;9.50;;;;;;;6.18;100.00;102273.94;4967357;28;20117;-61
2023/04/30 01:36:30;;;;;;;11.23;9.55;;;;;;;6.14;100.00;102272.53;4949529;28;20115;-62
2023/04/30 01:39:07;;;;;;;11.95;9.98;;;;;;;6.17;100.00;102272.19;4961971;28;20026;-61
2023/04/30 01:41:48;;;;;;;12.82;10.13;;;;;;;6.16;100.00;102270.50;4969412;28;20062;-61
2023/04/30 01:44:28;;;;;;;12.18;10.82;;;;;;;6.13;100.00;102272.69;4950035;28;20035;-61
2023/04/30 01:47:05;;;;;;;15.85;10.25;;;;;;;6.18;100.00;102271.19;4950101;28;20051;-62
2023/04/30 01:50:06;;;;;;;11.73;10.15;;;;;;;6.30;100.00;102268.16;4950508;28;20375;-61
2023/04/30 01:52:56;;;;;;;11.77;10.27;;;;;;;6.32;100.00;102266.09;4956005;28;20062;-61
2023/04/30 01:55:42;;;;;;;11.90;10.32;;;;;;;6.21;100.00;102270.84;4966938;28;20355;-61
2023/04/30 01:58:20;;;;;;;11.27;9.75;;;;;;;6.15;100.00;102276.97;4968228;28;20027;-62
2023/04/30 02:00:46;;;;;;;10.63;9.48;;;;;;;6.09;100.00;102269.47;4969423;28;20031;-61
2023/04/30 02:03:11;;;;;;;11.95;10.63;;;;;;;6.04;100.00;102266.38;4968871;28;20386;-61
2023/04/30 02:05:36;;;;;;;12.32;10.13;;;;;;;5.98;100.00;102270.63;4969345;28;20048;-61
2023/04/30 02:08:02;;;;;;;12.25;10.55;;;;;;;5.94;100.00;102276.56;4968642;28;20034;-62
2023/04/30 02:10:29;;;;;;;13.13;10.70;;;;;;;5.88;100.00;102275.34;4968845;28;20038;-61
2023/04/30 02:12:54;;;;;;;11.50;10.30;;;;;;;5.87;100.00;102270.03;4967942;28;20624;-61
2023/04/30 02:15:19;;;;;;;12.40;10.45;;;;;;;5.87;100.00;102267.28;4969158;28;20019;-61
2023/04/30 02:17:45;;;;;;;12.07;10.18;;;;;;;5.91;100.00;102268.69;4969336;28;20458;-61
2023/04/30 02:20:10;;;;;;;12.38;10.70;;;;;;;5.93;100.00;102272.13;4968501;28;20073;-61
2023/04/30 02:22:36;;;;;;;11.43;9.60;;;;;;;5.91;100.00;102265.94;4968466;28;20027;-61
2023/04/30 02:25:02;;;;;;;11.55;10.20;;;;;;;5.81;100.00;102279.72;4968542;28;20102;-61
2023/04/30 02:27:30;;;;;;;11.27;10.07;;;;;;;5.77;100.00;102272.03;4967947;28;20029;-62
2023/04/30 02:29:56;;;;;;;11.73;9.90;;;;;;;5.75;100.00;102274.06;4967162;28;20466;-62
2023/04/30 02:32:21;;;;;;;12.45;9.88;;;;;;;5.71;100.00;102273.53;4968379;28;20118;-61
2023/04/30 02:34:47;;;;;;;11.57;9.35;;;;;;;5.71;100.00;102273.53;4968682;28;20023;-61
2023/04/30 02:37:12;;;;;;;12.32;9.82;;;;;;;5.77;100.00;102272.88;4968472;28;20031;-61
2023/04/30 02:39:38;;;;;;;12.10;10.05;;;;;;;5.92;100.00;102270.41;4968718;28;20027;-61
2023/04/30 02:42:05;;;;;;;11.80;10.35;;;;;;;5.91;100.00;102268.69;4967140;28;20042;-61
2023/04/30 02:44:31;;;;;;;11.48;9.52;;;;;;;5.85;100.00;102264.75;4978890;28;20026;-61
2023/04/30 02:46:56;;;;;;;13.70;11.00;;;;;;;5.94;100.00;102263.78;4967263;28;20409;-61
2023/04/30 02:49:21;;;;;;;11.95;10.48;;;;;;;5.97;100.00;102268.03;4968773;28;20039;-61
2023/04/30 02:51:46;;;;;;;11.77;10.30;;;;;;;6.16;100.00;102259.56;4965840;28;20031;-61
2023/04/30 02:54:12;;;;;;;10.68;9.35;;;;;;;5.97;100.00;102268.03;4985949;28;20386;-61
2023/04/30 02:56:40;;;;;;;11.35;10.15;;;;;;;5.87;100.00;102259.97;4986159;28;20038;-61
2023/04/30 02:59:05;;;;;;;11.30;9.90;;;;;;;5.80;100.00;102261.66;4986507;28;20042;-61
2023/04/30 03:01:31;;;;;;;11.95;10.43;;;;;;;5.75;100.00;102257.72;4973352;28;20035;-61
2023/04/30 03:03:57;;;;;;;10.13;8.85;;;;;;;5.69;100.00;102265.53;4984705;28;20752;-61
2023/04/30 03:06:22;;;;;;;12.25;9.88;;;;;;;5.66;100.00;102268.56;4985839;28;20037;-61
2023/04/30 03:08:48;;;;;;;11.35;9.85;;;;;;;5.60;100.00;102266.50;4967737;28;20022;-61
2023/04/30 03:11:13;;;;;;;11.68;10.25;;;;;;;5.57;100.00;102263.25;4962387;28;20034;-61
2023/04/30 03:13:38;;;;;;;11.48;10.27;;;;;;;5.50;100.00;102267.66;4967491;28;20057;-61
2023/04/30 03:16:04;;;;;;;12.75;10.05;;;;;;;5.43;100.00;102268.31;4967535;28;20038;-61
2023/04/30 03:18:29;;;;;;;11.85;10.20;;;;;;;5.41;100.00;102266.75;4966500;28;20055;-61
2023/04/30 03:20:56;;;;;;;11.57;10.10;;;;;;;5.42;100.00;102268.44;4967158;28;20035;-61
2023/04/30 03:23:21;;;;;;;11.85;10.52;;;;;;;5.39;100.00;102274.25;4968220;28;20023;-61
2023/04/30 03:25:47;;;;;;;11.95;10.05;;;;;;;5.38;100.00;102269.81;4967513;28;20037;-62
2023/04/30 03:28:12;;;;;;;11.98;10.63;;;;;;;5.34;100.00;102266.56;4966938;28;20054;-61
2023/04/30 03:30:38;;;;;;;10.65;9.55;;;;;;;5.34;100.00;102265.69;4967113;28;20035;-61
2023/04/30 03:33:06;;;;;;;12.13;10.20;;;;;;;5.31;100.00;102269.59;4968005;28;20022;-62
2023/04/30 03:35:32;;;;;;;11.50;9.48;;;;;;;5.27;100.00;102270.06;4967857;28;20027;-61
2023/04/30 03:37:58;;;;;;;12.43;10.27;;;;;;;5.28;100.00;102272.66;4967056;28;20051;-61
2023/04/30 03:40:23;;;;;;;12.98;10.50;;;;;;;5.55;100.00;102271.59;4966930;28;20035;-61
2023/04/30 03:42:48;;;;;;;12.63;11.13;;;;;;;5.75;100.00;102264.03;4974051;28;20023;-61
2023/04/30 03:45:14;;;;;;;12.35;9.00;;;;;;;5.75;100.00;102271.34;4986867;28;20133;-61
2023/04/30 03:47:39;;;;;;;12.10;10.82;;;;;;;5.61;100.00;102273.66;4985822;28;20085;-61
2023/04/30 03:50:06;;;;;;;11.93;10.70;;;;;;;5.79;100.00;102270.00;4981503;28;21608;-62
2023/04/30 03:52:32;;;;;;;13.35;11.95;;;;;;;5.72;100.00;102280.69;4983737;28;20393;-61
2023/04/30 03:54:57;;;;;;;11.85;9.85;;;;;;;5.94;100.00;102269.25;4986165;28;20026;-61
2023/04/30 03:57:23;;;;;;;13.88;11.05;;;;;;;6.04;100.00;102269.09;4976927;28;20114;-61
2023/04/30 03:59:49;;;;;;;12.98;10.63;;;;;;;5.98;100.00;102267.91;4970864;28;20023;-61
2023/04/30 04:02:15;;;;;;;14.35;10.65;;;;;;;5.88;100.00;102266.28;4985831;28;20034;-63
2023/04/30 04:04:41;;;;;;;12.43;10.95;;;;;;;5.91;100.00;102269.56;4991115;28;20363;-62
2023/04/30 04:07:08;;;;;;;13.13;11.38;;;;;;;5.71;100.00;102279.00;4984279;28;20035;-61
2023/04/30 04:09:33;;;;;;;14.82;12.45;;;;;;;5.62;100.00;102271.78;4988680;28;20080;-61
2023/04/30 04:12:00;;;;;;;12.68;11.20;;;;;;;5.57;100.00;102272.28;4988896;28;20031;-61
2023/04/30 04:14:25;;;;;;;12.73;11.35;;;;;;;5.57;100.00;102277.72;4989229;28;20038;-61
2023/04/30 04:16:50;;;;;;;13.23;11.80;;;;;;;5.45;100.00;102274.44;4986806;28;20516;-61
2023/04/30 04:19:15;;;;;;;13.70;11.63;;;;;;;5.58;100.00;102274.00;4971759;28;20042;-62
2023/04/30 04:21:41;;;;;;;13.50;11.88;;;;;;;5.48;100.00;102281.44;4981477;28;20034;-62
2023/04/30 04:24:07;;;;;;;13.30;11.70;;;;;;;5.42;100.00;102274.78;4988511;28;20033;-62
2023/04/30 04:26:36;;;;;;;12.85;11.50;;;;;;;5.36;100.00;102285.44;4978111;28;20593;-61
2023/04/30 04:29:03;;;;;;;12.77;11.30;;;;;;;5.35;100.00;102284.59;4970636;28;20029;-62
2023/04/30 04:31:29;;;;;;;13.25;10.95;;;;;;;5.36;100.00;102277.28;4981071;28;20027;-60
2023/04/30 04:33:59;;;;;;;12.98;10.88;;;;;;;5.32;100.00;102278.59;4989041;28;20038;-61
2023/04/30 04:36:27;;;;;;;11.75;10.52;;;;;;;5.29;100.00;102284.41;4988850;28;20018;-61
2023/04/30 04:39:01;;;;;;;;;;;;;;;5.39;100.00;102285.16;4972422;28;20057;-62
2023/04/30 04:41:28;;;;;;;11.35;10.15;;;;;;;5.35;100.00;102284.59;4969160;28;20068;-61
2023/04/30 04:43:53;;;;;;;12.35;10.88;;;;;;;5.38;100.00;102292.47;4951826;28;20050;-62
2023/04/30 04:46:19;;;;;;;13.27;11.43;;;;;;;5.44;100.00;102290.97;4965352;28;20062;-63
2023/04/30 04:48:45;;;;;;;13.75;12.05;;;;;;;5.48;100.00;102276.00;4970094;28;20027;-61
2023/04/30 04:51:11;;;;;;;12.60;10.85;;;;;;;5.52;100.00;102282.81;4970358;28;20053;-61
2023/04/30 04:53:36;;;;;;;13.55;11.77;;;;;;;5.60;100.00;102282.88;4970907;28;20101;-61
2023/04/30 04:56:02;;;;;;;12.15;10.93;;;;;;;5.64;100.00;102289.69;4970116;28;20030;-61
2023/04/30 04:58:27;;;;;;;13.20;11.80;;;;;;;5.78;100.00;102295.53;4969282;28;20038;-61
2023/04/30 05:00:53;;;;;;;13.40;11.95;;;;;;;5.79;100.00;102297.28;4970150;28;20493;-61
2023/04/30 05:03:19;;;;;;;13.13;11.73;;;;;;;5.78;100.00;102290.97;4970677;28;20035;-62
2023/04/30 05:05:45;;;;;;;13.63;11.65;;;;;;;5.87;100.00;102295.41;4970199;28;20520;-61
2023/04/30 05:08:10;;;;;;;13.40;12.00;;;;;;;5.86;100.00;102298.31;4969674;28;20035;-61
2023/04/30 05:10:35;;;;;;;13.10;11.80;;;;;;;5.87;100.00;102305.47;4970386;28;20035;-61
2023/04/30 05:13:01;;;;;;;11.93;10.73;;;;;;;5.87;100.00;102300.00;4969111;28;20023;-61
2023/04/30 05:15:26;;;;;;;12.80;11.45;;;;;;;5.86;100.00;102301.88;4970311;28;20031;-61
2023/04/30 05:17:51;;;;;;;13.85;12.35;;;;;;;5.91;100.00;102301.41;4969062;28;20418;-61
2023/04/30 05:20:17;;;;;;;14.68;13.25;;;;;;;6.02;100.00;102300.28;4970599;28;20052;-61
2023/04/30 05:22:42;;;;;;;14.15;12.30;;;;;;;6.16;100.00;102303.22;4969781;28;20101;-61
2023/04/30 05:25:08;;;;;;;14.48;13.00;;;;;;;6.26;100.00;102299.50;4969843;28;20039;-62
2023/04/30 05:27:33;;;;;;;15.30;13.80;;;;;;;6.36;100.00;102292.88;4967765;28;20043;-62
2023/04/30 05:29:58;;;;;;;15.20;13.70;;;;;;;6.49;100.00;102295.97;4968588;28;20023;-62
2023/04/30 05:32:24;;;;;;;14.00;12.20;;;;;;;6.62;100.00;102290.00;4969733;28;20070;-61
2023/04/30 05:34:49;;;;;;;15.73;13.30;;;;;;;6.67;100.00;102287.63;4968843;28;20030;-61
2023/04/30 05:37:16;;;;;;;15.55;14.00;;;;;;;6.69;100.00;102282.88;4968793;28;21221;-61
2023/04/30 05:39:41;;;;;;;15.38;13.82;;;;;;;6.76;100.00;102292.06;4966801;28;20030;-62
2023/04/30 05:42:07;;;;;;;15.27;13.77;;;;;;;6.84;100.00;102287.63;4977539;28;20034;-61
2023/04/30 05:44:32;;;;;;;14.52;13.02;;;;;;;6.91;100.00;102294.13;4987700;28;20042;-62
2023/04/30 05:46:57;;;;;;;13.82;12.38;;;;;;;6.98;100.00;102290.53;4974137;28;20066;-61
2023/04/30 05:49:22;;;;;;;13.75;12.23;;;;;;;7.23;100.00;102291.34;4978821;28;20034;-61
2023/04/30 05:51:48;;;;;;;14.95;13.45;;;;;;;7.15;100.00;102287.78;4973312;28;20022;-62
2023/04/30 05:54:13;;;;;;;14.48;13.02;;;;;;;7.27;100.00;102289.13;4987682;28;20030;-62
2023/04/30 05:56:38;;;;;;;13.73;12.43;;;;;;;7.38;100.00;102288.75;4983217;28;20062;-61
2023/04/30 05:59:03;;;;;;;14.18;12.68;;;;;;;7.50;100.00;102290.09;4968610;28;20053;-61
2023/04/30 06:01:29;;;;;;;14.05;12.68;;;;;;;7.56;100.00;102290.44;4982602;28;20080;-62
2023/04/30 06:03:54;;;;;;;13.90;12.48;;;;;;;7.75;100.00;102298.22;4968250;28;20109;-62
2023/04/30 06:06:19;;;;;;;12.90;11.60;;;;;;;7.83;100.00;102287.25;4968649;28;20062;-62
2023/04/30 06:08:45;;;;;;;14.43;11.50;;;;;;;7.82;100.00;102287.44;4969716;28;20102;-61
2023/04/30 06:11:11;;;;;;;13.07;11.77;;;;;;;7.83;100.00;102289.97;4968489;28;20530;-62
2023/04/30 06:13:37;;;;;;;13.20;11.68;;;;;;;7.92;100.00;102294.41;4969636;28;20355;-62
2023/04/30 06:16:03;;;;;;;13.07;11.70;;;;;;;7.96;100.00;102290.28;4967986;28;20030;-61
2023/04/30 06:18:28;;;;;;;12.85;11.55;;;;;;;8.05;100.00;102280.13;4969102;28;20023;-61
2023/04/30 06:20:53;;;;;;;12.60;11.30;;;;;;;8.13;100.00;102271.88;4967757;28;20233;-61
2023/04/30 06:23:19;;;;;;;12.23;10.65;;;;;;;8.19;100.00;102284.84;4969443;28;20034;-62
2023/04/30 06:25:44;;;;;;;13.02;10.85;;;;;;;8.27;100.00;102279.34;4968752;28;20039;-62
2023/04/30 06:28:09;;;;;;;12.10;10.80;;;;;;;8.33;100.00;102270.38;4968116;28;20093;-61
2023/04/30 06:30:35;;;;;;;11.75;10.55;;;;;;;8.38;100.00;102278.09;4968606;28;20027;-62
2023/04/30 06:33:01;;;;;;;10.95;9.63;;;;;;;8.46;100.00;102280.75;4968809;28;20038;-62
2023/04/30 06:35:26;;;;;;;13.75;11.15;;;;;;;8.55;100.00;102284.31;4968544;28;20031;-62
2023/04/30 06:37:52;;;;;;;10.90;9.80;;;;;;;8.69;100.00;102280.78;4962877;28;20068;-62
2023/04/30 06:40:17;;;;;;;13.15;10.02;;;;;;;8.81;100.00;102282.03;4977507;28;20025;-62
2023/04/30 06:42:42;;;;;;;11.00;9.80;;;;;;;8.91;100.00;102290.00;4978584;28;20469;-62
2023/04/30 06:45:08;;;;;;;12.75;9.68;;;;;;;9.07;100.00;102289.88;4976114;28;20074;-62
2023/04/30 06:47:36;;;;;;;11.10;10.00;;;;;;;9.26;100.00;102288.47;4981762;28;20387;-62
2023/04/30 06:50:02;;;;;;;11.07;9.95;;;;;;;9.52;100.00;102299.00;4978153;28;20053;-61
2023/04/30 06:52:28;;;;;;;10.35;9.05;;;;;;;9.68;100.00;102298.00;4973992;28;20066;-61
2023/04/30 06:54:54;;;;;;;11.35;9.73;;;;;;;9.82;100.00;102299.84;4968345;28;20049;-62
2023/04/30 06:57:19;;;;;;;11.23;9.32;;;;;;;10.01;100.00;102295.69;4974193;28;20030;-62
2023/04/30 06:59:44;;;;;;;11.27;9.23;;;;;;;10.22;100.00;102296.78;4987781;28;20061;-61
2023/04/30 07:02:10;;;;;;;10.20;9.15;;;;;;;10.64;100.00;102294.13;4979219;28;20034;-62
2023/04/30 07:04:35;;;;;;;11.65;9.15;;;;;;;11.24;95.36;102289.13;4966483;28;20030;-62
2023/04/30 07:07:01;;;;;;;10.02;9.00;;;;;;;11.35;94.33;102288.59;4966313;28;20141;-62
2023/04/30 07:09:27;;;;;;;10.32;9.18;;;;;;;11.38;93.98;102281.84;4984705;28;20039;-62
2023/04/30 07:11:53;;;;;;;10.38;9.10;;;;;;;11.39;92.90;102278.88;4982189;28;20085;-61
2023/04/30 07:14:18;;;;;;;10.05;8.95;;;;;;;11.39;91.79;102273.38;4967091;28;20034;-62
2023/04/30 07:16:44;;;;;;;10.55;8.68;;;;;;;11.40;92.83;102282.47;4973741;28;20030;-62
2023/04/30 07:19:09;;;;;;;10.77;8.90;;;;;;;11.52;91.06;102280.03;4979994;28;20367;-62
2023/04/30 07:21:34;;;;;;;10.50;9.25;;;;;;;11.69;91.54;102285.00;4967280;28;20077;-62
2023/04/30 07:23:59;;;;;;;10.32;8.77;;;;;;;11.93;90.83;102280.94;4966439;28;20050;-62
2023/04/30 07:26:25;;;;;;;11.57;9.68;;;;;;;12.35;89.79;102281.72;4966292;28;20027;-62
2023/04/30 07:28:50;;;;;;;11.93;9.20;;;;;;;12.94;87.12;102272.69;4967608;28;20138;-62
2023/04/30 07:31:16;;;;;;;11.75;9.32;;;;;;;13.43;83.58;102273.31;4965342;28;20065;-62
2023/04/30 07:33:41;;;;;;;10.02;7.93;;;;;;;13.61;82.62;102272.66;4968041;28;20031;-62
2023/04/30 07:36:07;;;;;;;9.23;8.30;;;;;;;13.84;79.64;102272.16;4967368;28;20465;-62
2023/04/30 07:38:32;;;;;;;9.90;8.27;;;;;;;14.45;79.18;102272.53;4968013;28;20027;-62
2023/04/30 07:40:57;;;;;;;9.85;8.52;;;;;;;14.27;77.02;102270.50;4973530;28;20030;-62
2023/04/30 07:43:22;;;;;;;9.02;7.97;;;;;;;13.98;78.04;102274.66;4967055;28;20038;-62
2023/04/30 07:45:48;;;;;;;8.82;7.93;;;;;;;13.71;80.19;102270.28;4966732;28;20482;-62
2023/04/30 07:48:15;;;;;;;9.90;8.45;;;;;;;13.38;79.29;102271.22;4968298;28;20050;-62
2023/04/30 07:50:40;;;;;;;10.15;8.70;;;;;;;13.10;80.86;102270.56;4967776;28;20038;-62
2023/04/30 07:53:08;;;;;;;10.52;8.57;;;;;;;12.92;81.92;102268.44;4966376;28;20402;-62
2023/04/30 07:55:33;;;;;;;10.02;8.90;;;;;;;12.86;83.63;102272.91;4967142;28;20030;-62
2023/04/30 07:57:59;;;;;;;10.55;8.75;;;;;;;12.79;85.49;102277.56;4966807;28;20030;-63
2023/04/30 08:00:25;;;;;;;10.35;8.48;;;;;;;12.70;83.38;102278.81;4967552;28;20027;-62
2023/04/30 08:02:50;;;;;;;10.82;9.70;;;;;;;12.79;87.55;102277.56;4981486;28;20054;-62
2023/04/30 08:05:16;;;;;;;10.95;9.35;;;;;;;12.86;85.99;102274.81;4986870;28;20186;-62
2023/04/30 08:07:43;;;;;;;11.52;8.52;;;;;;;12.92;83.54;102276.72;4965652;28;20466;-62
2023/04/30 08:10:09;;;;;;;9.50;8.40;;;;;;;12.97;81.02;102280.53;4967473;28;20039;-62
2023/04/30 08:12:37;;;;;;;11.43;9.45;;;;;;;12.94;81.75;102280.97;4962938;28;20073;-62
2023/04/30 08:15:03;;;;;;;;;;;;;;;13.00;85.37;102287.56;4963276;28;20050;-62
2023/04/30 08:17:29;;;;;;;10.68;9.15;;;;;;;13.07;84.14;102285.63;4963721;28;19929;-62
2023/04/30 08:19:54;;;;;;;9.57;8.57;;;;;;;13.14;83.54;102291.16;4953502;28;20039;-62
2023/04/30 08:22:22;;;;;;;9.93;8.52;;;;;;;13.18;82.51;102290.53;4964782;28;20106;-63
2023/04/30 08:24:47;;;;;;;12.27;8.57;;;;;;;13.18;83.20;102290.53;4953086;28;20031;-62
2023/04/30 08:27:13;;;;;;;10.13;9.10;;;;;;;13.30;81.18;102288.00;4954753;28;20317;-62
2023/04/30 08:29:38;;;;;;;10.82;9.52;;;;;;;13.32;84.21;102293.28;4958166;28;20054;-62
2023/04/30 08:32:04;;;;;;;10.50;9.15;;;;;;;13.35;85.14;102287.34;4967206;28;20551;-62
2023/04/30 08:34:30;;;;;;;10.30;9.30;;;;;;;13.48;81.11;102282.69;4966379;28;20027;-62
2023/04/30 08:36:55;;;;;;;10.20;8.70;;;;;;;14.13;77.92;102281.81;4948140;28;20064;-62
2023/04/30 08:39:21;;;;;;;9.88;8.88;;;;;;;14.03;78.02;102285.03;4947399;28;20489;-63
2023/04/30 08:41:54;;;;;;;9.60;8.60;;;;;;;13.93;76.90;102285.50;4947179;28;20114;-62
2023/04/30 08:44:21;;;;;;;9.55;7.97;;;;;;;14.00;78.69;102289.09;4955459;28;20109;-62
2023/04/30 08:46:52;;;;;;;9.90;8.90;;;;;;;13.99;79.61;102284.66;4971014;28;20055;-62
2023/04/30 08:49:17;;;;;;;9.52;8.52;;;;;;;14.20;80.81;102279.91;4971584;28;20062;-62
2023/04/30 08:51:43;;;;;;;10.23;9.13;;;;;;;14.40;78.60;102283.41;4985408;28;20517;-61
2023/04/30 08:54:12;;;;;;;11.60;9.07;;;;;;;14.62;81.67;102291.38;4970357;28;20118;-62
2023/04/30 08:56:37;;;;;;;9.48;8.35;;;;;;;14.71;78.65;102281.75;4969334;28;20026;-62
2023/04/30 08:59:02;;;;;;;10.07;8.77;;;;;;;14.74;74.19;102281.28;4970607;28;20033;-62
2023/04/30 09:01:29;;;;;;;9.93;8.48;;;;;;;14.53;74.57;102274.19;4968911;28;20035;-63
2023/04/30 09:03:55;;;;;;;9.63;8.50;;;;;;;14.67;74.90;102278.59;4970307;28;20034;-62
2023/04/30 09:06:20;;;;;;;10.90;9.52;;;;;;;15.61;78.20;102273.06;4970226;28;20089;-62
2023/04/30 09:08:47;;;;;;;10.73;8.75;;;;;;;16.76;71.11;102281.44;4971110;28;20039;-63
2023/04/30 09:11:26;;;;;;;7.63;4.57;;;;;;;16.68;66.06;102270.66;4969678;28;20093;-63
2023/04/30 09:13:54;;;;;;;9.70;8.07;;;;;;;17.10;63.44;102269.56;4984634;28;20381;-62
2023/04/30 09:16:20;;;;;;;9.20;8.30;;;;;;;18.81;59.81;102266.31;4969744;28;20027;-63
2023/04/30 09:18:46;;;;;;;8.70;7.80;;;;;;;19.01;57.34;102276.09;4967013;28;20066;-62
2023/04/30 09:21:12;;;;;;;9.25;7.63;;;;;;;20.77;57.26;102265.94;4986254;28;20026;-63
2023/04/30 09:23:54;;;;;;;9.25;8.13;;;;;;;22.68;54.27;102269.31;4990066;28;20117;-63
2023/04/30 09:26:31;;;;;;;9.07;7.00;;;;;;;24.22;50.58;102261.53;4980999;28;20686;-63
2023/04/30 09:28:58;;;;;;;8.57;7.00;;;;;;;25.06;38.73;102265.19;4970339;28;20041;-63
2023/04/30 09:31:25;;;;;;;8.90;6.43;;;;;;;24.85;39.30;102265.38;4978704;28;20019;-63
2023/04/30 09:33:51;;;;;;;8.40;6.65;;;;;;;24.36;40.90;102267.38;4987970;28;20030;-62
2023/04/30 09:36:16;;;;;;;8.10;5.72;;;;;;;24.96;37.11;102266.13;4968034;28;20034;-63
2023/04/30 09:38:42;;;;;;;7.40;6.18;;;;;;;24.49;38.89;102261.97;4968580;28;20031;-63
2023/04/30 09:41:20;;;;;;;7.30;5.93;;;;;;;25.05;39.42;102263.53;4985691;28;20483;-63
2023/04/30 09:43:45;;;;;;;6.78;5.22;;;;;;;24.95;35.79;102256.03;4989626;28;20030;-63
2023/04/30 09:46:11;;;;;;;7.20;5.78;;;;;;;23.67;38.60;102252.19;4982709;28;20369;-63
2023/04/30 09:48:40;;;;;;;6.87;5.70;;;;;;;23.89;39.14;102254.66;4986009;28;20030;-64
2023/04/30 09:51:06;;;;;;;5.30;4.00;;;;;;;24.32;36.74;102256.69;4984659;28;20289;-63
2023/04/30 09:53:36;;;;;;;6.75;4.85;;;;;;;24.42;39.72;102250.19;4977822;28;20076;-63
2023/04/30 09:56:05;;;;;;;8.45;5.60;;;;;;;25.03;36.47;102248.91;4986032;28;20096;-63
2023/04/30 09:58:36;;;;;;;6.22;4.75;;;;;;;24.62;36.88;102237.16;4966724;28;20126;-63
2023/04/30 10:01:07;;;;;;;5.45;4.13;;;;;;;25.23;35.67;102248.75;4973106;28;20732;-63
2023/04/30 10:03:33;;;;;;;6.75;4.93;;;;;;;25.46;36.05;102246.28;4989521;28;20065;-63
2023/04/30 10:05:59;;;;;;;5.55;4.47;;;;;;;26.45;34.39;102248.47;4979378;28;20046;-63
2023/04/30 10:08:35;;;;;;;6.38;4.20;;;;;;;27.83;34.24;102235.63;4986188;28;20084;-63
2023/04/30 10:11:04;;;;;;;5.97;5.10;;;;;;;27.78;31.22;102235.72;4988173;28;20218;-63
2023/04/30 10:13:32;;;;;;;7.45;5.10;;;;;;;28.14;32.16;102235.84;4988597;28;20121;-63
2023/04/30 10:16:00;;;;;;;5.82;4.85;;;;;;;28.55;30.21;102229.25;4973193;28;20014;-62
2023/04/30 10:18:33;;;;;;;5.65;4.72;;;;;;;28.30;31.69;102231.50;4987812;28;20054;-63
2023/04/30 10:21:02;;;;;;;7.05;4.82;;;;;;;27.83;32.54;102230.84;4988127;28;20624;-63
2023/04/30 10:23:29;;;;;;;6.82;4.35;;;;;;;27.78;32.63;102225.31;4982732;28;20110;-63
2023/04/30 10:25:56;;;;;;;5.68;5.05;;;;;;;28.07;30.23;102232.56;4966947;28;20034;-63
2023/04/30 10:28:22;;;;;;;5.50;4.70;;;;;;;28.91;29.39;102226.38;4967152;28;20031;-63
2023/04/30 10:30:50;;;;;;;6.28;5.10;;;;;;;28.58;29.48;102226.59;4969176;28;20046;-63
2023/04/30 10:33:28;;;;;;;6.00;4.90;;;;;;;28.89;31.17;102226.72;4970662;28;20027;-63
2023/04/30 10:36:00;;;;;;;5.50;3.72;;;;;;;28.97;30.86;102224.28;4977447;28;20469;-63
2023/04/30 10:38:28;;;;;;;6.13;4.57;;;;;;;28.59;30.59;102214.16;4988713;28;20105;-63
2023/04/30 10:40:58;;;;;;;5.53;4.93;;;;;;;28.36;30.81;102216.13;4986484;28;20035;-62
2023/04/30 10:43:24;;;;;;;5.00;3.97;;;;;;;29.09;28.42;102201.88;4966762;28;20034;-63
2023/04/30 10:45:49;;;;;;;4.90;3.72;;;;;;;28.67;27.65;102206.91;4976089;28;20118;-63
2023/04/30 10:48:15;;;;;;;4.80;3.95;;;;;;;28.38;29.38;102202.50;4988809;28;20149;-63
2023/04/30 10:50:42;;;;;;;5.28;4.00;;;;;;;27.51;29.51;102205.50;4986155;28;20557;-64
2023/04/30 10:53:14;;;;;;;4.70;3.50;;;;;;;26.88;31.65;102202.13;4969584;28;20556;-63
2023/04/30 10:56:05;;;;;;;3.08;2.60;;;;;;;26.43;31.27;102200.88;4968401;28;20039;-63
2023/04/30 10:58:38;;;;;;;5.20;3.53;;;;;;;25.44;31.84;102184.69;4968925;28;20023;-63
2023/04/30 11:01:05;;;;;;;5.90;4.35;;;;;;;25.00;35.41;102187.69;4969653;28;20035;-63
2023/04/30 11:03:33;;;;;;;5.35;4.30;;;;;;;24.76;37.19;102191.25;4968134;28;20102;-63
2023/04/30 11:06:02;;;;;;;5.78;3.90;;;;;;;24.33;36.14;102185.38;4967809;28;20031;-63
2023/04/30 11:08:39;;;;;;;5.68;4.45;;;;;;;22.10;39.00;102187.44;4968233;28;20023;-63
2023/04/30 11:11:07;;;;;;;6.22;4.65;;;;;;;21.49;41.95;102175.97;4969535;28;20104;-63
2023/04/30 11:14:00;;;;;;;5.60;4.30;;;;;;;20.93;42.67;102167.22;4981382;28;20059;-63
2023/04/30 11:16:34;;;;;;;5.85;4.68;;;;;;;20.19;46.53;102165.16;4957822;28;20043;-63
2023/04/30 11:19:10;;;;;;;5.70;4.65;;;;;;;19.80;46.28;102167.22;4967308;28;20030;-63